Time;durP1;ratioP1;P1;durP2;ratioP2;P2;SDS_P1;SDS_P2;PMS_P1;PMS_P2;Temp;Humidity;BMP_temperature;BMP_pressure;BME280_temperature;BME280_humidity;BME280_pressure;Samples;Min_cycle;Max_cycle;Signal;HPM_P1;HPM_P2
2023/04/22 00:01:10;;;;;;;3.00;2.70;;;16.70;74.40;;;;;;5052743;28;20468;-65
2023/04/22 00:03:38;;;;;;;3.00;2.60;;;16.70;74.50;;;;;;5052684;28;20455;-65
2023/04/22 00:06:05;;;;;;;3.20;2.80;;;16.70;74.70;;;;;;5051008;28;20871;-65
2023/04/22 00:08:32;;;;;;;2.80;2.60;;;16.70;74.80;;;;;;5052492;28;20463;-65
2023/04/22 00:10:58;;;;;;;3.30;2.77;;;16.60;74.70;;;;;;5052819;28;20464;-65
2023/04/22 00:13:25;;;;;;;2.90;2.50;;;16.60;74.70;;;;;;5052716;28;20452;-65
2023/04/22 00:15:52;;;;;;;4.30;2.83;;;16.60;74.90;;;;;;5052256;28;20454;-65
2023/04/22 00:18:20;;;;;;;3.40;2.77;;;16.60;75.00;;;;;;5052257;28;20444;-65
2023/04/22 00:20:47;;;;;;;2.83;2.63;;;16.50;75.10;;;;;;5050889;28;20587;-65
2023/04/22 00:23:14;;;;;;;3.30;3.00;;;16.50;75.10;;;;;;5032384;28;20544;-65
2023/04/22 00:25:41;;;;;;;3.00;2.70;;;16.50;75.20;;;;;;5032386;28;20457;-65
2023/04/22 00:28:08;;;;;;;3.60;2.83;;;16.50;75.20;;;;;;5032551;28;20477;-65
2023/04/22 00:30:35;;;;;;;3.23;2.57;;;16.50;75.20;;;;;;5032387;28;20447;-65
2023/04/22 00:33:02;;;;;;;3.03;2.73;;;16.50;75.30;;;;;;5032413;28;20548;-65
2023/04/22 00:35:30;;;;;;;3.03;2.73;;;16.50;75.20;;;;;;5033420;28;20507;-65
2023/04/22 00:37:57;;;;;;;8.47;2.77;;;16.40;75.20;;;;;;5051819;28;20472;-65
2023/04/22 00:40:24;;;;;;;3.17;2.87;;;16.50;75.30;;;;;;5052499;28;20486;-65
2023/04/22 00:42:51;;;;;;;3.20;2.90;;;16.40;75.20;;;;;;5052300;28;20458;-65
2023/04/22 00:45:19;;;;;;;4.10;3.13;;;16.40;75.20;;;;;;5051844;28;20444;-65
2023/04/22 00:47:47;;;;;;;3.00;2.43;;;16.40;75.30;;;;;;5052039;28;20450;-65
2023/04/22 00:50:14;;;;;;;3.07;2.70;;;16.40;75.30;;;;;;5054209;28;20822;-65
2023/04/22 00:52:42;;;;;;;5.53;2.93;;;16.30;75.20;;;;;;5056220;28;20902;-64
2023/04/22 00:55:10;;;;;;;3.50;2.93;;;16.30;75.30;;;;;;5056377;28;20475;-65
2023/04/22 00:57:38;;;;;;;3.13;2.83;;;16.30;75.20;;;;;;5055759;28;20452;-65
2023/04/22 01:00:08;;;;;;;3.03;2.40;;;16.30;76.10;;;;;;5055990;28;20492;-65
2023/04/22 01:02:36;;;;;;;3.20;2.67;;;16.30;75.30;;;;;;5056108;28;20452;-63
2023/04/22 01:05:03;;;;;;;2.70;2.50;;;16.30;75.40;;;;;;5055936;28;20489;-65
2023/04/22 01:07:30;;;;;;;3.37;2.60;;;16.20;75.50;;;;;;5055519;28;20502;-65
2023/04/22 01:09:58;;;;;;;3.80;3.40;;;16.20;75.70;;;;;;5056247;28;20456;-63
2023/04/22 01:12:25;;;;;;;4.10;2.50;;;16.10;75.90;;;;;;5055979;28;20807;-65
2023/04/22 01:14:52;;;;;;;4.90;3.27;;;16.10;76.00;;;;;;5055838;28;20514;-65
2023/04/22 01:17:20;;;;;;;4.27;3.87;;;16.10;75.90;;;;;;5055362;28;21010;-65
2023/04/22 01:19:48;;;;;;;4.97;4.47;;;16.10;76.80;;;;;;5049903;28;20873;-65
2023/04/22 01:22:15;;;;;;;4.90;4.00;;;16.10;76.00;;;;;;5035726;28;21050;-65
2023/04/22 01:24:43;;;;;;;4.00;3.40;;;16.00;76.20;;;;;;5036060;28;20813;-65
2023/04/22 01:27:11;;;;;;;4.87;3.97;;;16.10;76.40;;;;;;5035430;28;20465;-64
2023/04/22 01:29:38;;;;;;;4.50;4.10;;;16.10;76.40;;;;;;5035370;28;20517;-65
2023/04/22 01:32:05;;;;;;;4.67;3.50;;;16.10;76.40;;;;;;5035517;28;20445;-64
2023/04/22 01:34:32;;;;;;;3.83;3.53;;;16.10;76.40;;;;;;5042607;28;20540;-64
2023/04/22 01:36:59;;;;;;;4.20;3.80;;;16.10;76.40;;;;;;5055351;28;20444;-64
2023/04/22 01:39:26;;;;;;;3.60;3.30;;;16.10;76.30;;;;;;5055196;28;20454;-65
2023/04/22 01:41:55;;;;;;;4.27;3.33;;;16.10;76.30;;;;;;5055342;28;20452;-64
2023/04/22 01:44:22;;;;;;;4.30;3.70;;;16.10;76.40;;;;;;5055173;28;20471;-64
2023/04/22 01:46:49;;;;;;;3.63;3.33;;;16.10;76.30;;;;;;5055081;28;20510;-64
2023/04/22 01:49:16;;;;;;;4.30;3.90;;;16.10;76.30;;;;;;5054732;28;20484;-64
2023/04/22 01:51:43;;;;;;;4.07;3.60;;;16.00;76.20;;;;;;5055134;28;20447;-64
2023/04/22 01:54:10;;;;;;;3.80;3.50;;;16.00;76.30;;;;;;5055300;28;20448;-65
2023/04/22 01:56:39;;;;;;;4.63;3.37;;;16.00;76.20;;;;;;5054850;28;20447;-64
2023/04/22 01:59:07;;;;;;;3.40;3.10;;;16.00;76.20;;;;;;5050536;28;20511;-64
2023/04/22 02:01:34;;;;;;;3.50;3.20;;;16.00;76.10;;;;;;5054071;28;20499;-65
2023/04/22 02:04:01;;;;;;;4.33;3.43;;;15.90;76.00;;;;;;5054645;28;20456;-65
2023/04/22 02:06:28;;;;;;;4.97;3.90;;;16.00;76.00;;;;;;5054674;28;20482;-64
2023/04/22 02:08:54;;;;;;;4.30;3.90;;;15.90;75.90;;;;;;5054660;28;20646;-65
2023/04/22 02:11:21;;;;;;;4.37;4.00;;;15.90;75.80;;;;;;5054780;28;20467;-64
2023/04/22 02:13:48;;;;;;;5.00;4.43;;;15.90;76.30;;;;;;5054805;28;20451;-65
2023/04/22 02:16:16;;;;;;;3.87;3.57;;;15.80;75.50;;;;;;5054587;28;20461;-65
2023/04/22 02:18:43;;;;;;;4.20;3.80;;;15.90;75.60;;;;;;5048151;28;20455;-64
2023/04/22 02:21:10;;;;;;;3.40;3.10;;;15.80;75.40;;;;;;5044188;28;20484;-65
2023/04/22 02:23:38;;;;;;;3.40;3.10;;;15.80;75.40;;;;;;5054709;28;20440;-64
2023/04/22 02:26:05;;;;;;;3.57;3.20;;;15.80;75.50;;;;;;5054527;28;20466;-65
2023/04/22 02:28:32;;;;;;;3.43;3.13;;;15.80;75.70;;;;;;5054289;28;20828;-65
2023/04/22 02:30:59;;;;;;;3.80;3.40;;;15.70;75.70;;;;;;5054475;28;20455;-64
2023/04/22 02:33:27;;;;;;;3.73;3.30;;;15.70;75.70;;;;;;5048392;28;20813;-64
2023/04/22 02:35:54;;;;;;;3.60;3.30;;;15.70;75.80;;;;;;5034595;28;20857;-64
2023/04/22 02:38:21;;;;;;;3.60;3.00;;;15.70;75.70;;;;;;5034216;28;20540;-65
2023/04/22 02:40:48;;;;;;;7.00;3.50;;;15.70;75.80;;;;;;5034190;28;20483;-64
2023/04/22 02:43:15;;;;;;;5.27;3.30;;;15.70;75.80;;;;;;5034338;28;20449;-64
2023/04/22 02:45:42;;;;;;;3.40;3.10;;;15.60;75.80;;;;;;5034344;28;20453;-64
2023/04/22 02:48:08;;;;;;;5.30;3.40;;;15.60;75.90;;;;;;5038054;28;20455;-65
2023/04/22 02:50:36;;;;;;;4.40;4.00;;;15.60;76.00;;;;;;5043248;28;20472;-65
2023/04/22 02:53:03;;;;;;;4.53;3.83;;;15.60;76.00;;;;;;5054023;28;21068;-65
2023/04/22 02:55:30;;;;;;;5.40;4.23;;;15.60;76.10;;;;;;5053909;28;20468;-64
2023/04/22 02:57:57;;;;;;;5.53;4.13;;;15.50;76.10;;;;;;5053631;28;20464;-64
2023/04/22 03:00:24;;;;;;;4.10;3.70;;;15.50;76.00;;;;;;5053631;28;20476;-64
2023/04/22 03:02:51;;;;;;;4.83;3.80;;;15.50;75.90;;;;;;5054034;28;20446;-64
2023/04/22 03:05:18;;;;;;;4.10;3.70;;;15.50;75.90;;;;;;5045583;28;20511;-65
2023/04/22 03:07:48;;;;;;;5.77;3.93;;;15.50;75.90;;;;;;5053442;28;20469;-64
2023/04/22 03:10:15;;;;;;;4.23;3.83;;;15.50;76.70;;;;;;5053476;28;20505;-64
2023/04/22 03:12:41;;;;;;;4.17;3.77;;;15.40;75.80;;;;;;5053481;28;20479;-65
2023/04/22 03:15:09;;;;;;;5.90;3.60;;;15.40;76.00;;;;;;5053722;28;20940;-64
2023/04/22 03:17:36;;;;;;;3.70;3.30;;;15.30;75.80;;;;;;5042378;28;20484;-65
2023/04/22 03:20:03;;;;;;;3.40;3.10;;;15.30;75.50;;;;;;5033299;28;20489;-64
2023/04/22 03:22:30;;;;;;;4.57;3.20;;;15.30;75.30;;;;;;5033453;28;20939;-64
2023/04/22 03:24:58;;;;;;;3.80;3.40;;;15.30;75.10;;;;;;5033489;28;20460;-64
2023/04/22 03:27:25;;;;;;;3.90;3.50;;;15.20;75.00;;;;;;5033466;28;20480;-64
2023/04/22 03:29:51;;;;;;;4.87;2.97;;;15.20;75.10;;;;;;5033660;28;20449;-65
2023/04/22 03:32:18;;;;;;;3.63;3.33;;;15.10;75.20;;;;;;5033237;28;20460;-65
2023/04/22 03:34:45;;;;;;;3.50;3.20;;;15.10;75.10;;;;;;5047190;28;20984;-65
2023/04/22 03:37:12;;;;;;;3.60;3.03;;;15.10;75.00;;;;;;5053059;28;20463;-64
2023/04/22 03:39:39;;;;;;;3.93;3.60;;;15.10;75.00;;;;;;5053145;28;20468;-64
2023/04/22 03:42:07;;;;;;;3.43;3.00;;;15.00;74.90;;;;;;5052837;28;20587;-65
2023/04/22 03:44:34;;;;;;;3.87;3.40;;;15.00;74.80;;;;;;5053055;28;20459;-64
2023/04/22 03:47:01;;;;;;;3.60;3.30;;;15.00;74.70;;;;;;5052494;28;20537;-64
2023/04/22 03:49:28;;;;;;;3.83;3.27;;;15.00;74.70;;;;;;5052927;28;20440;-64
2023/04/22 03:51:54;;;;;;;5.00;3.83;;;15.00;74.50;;;;;;5053032;28;20792;-65
2023/04/22 03:54:21;;;;;;;4.07;3.30;;;14.90;74.40;;;;;;5052956;28;20454;-64
2023/04/22 03:56:48;;;;;;;4.07;3.67;;;14.90;74.50;;;;;;5052478;28;21345;-64
2023/04/22 03:59:18;;;;;;;3.80;3.03;;;14.90;74.50;;;;;;5052836;28;20468;-64
2023/04/22 04:01:48;;;;;;;3.47;3.17;;;14.90;74.40;;;;;;5047254;28;20485;-64
2023/04/22 04:04:14;;;;;;;3.70;3.00;;;14.80;75.00;;;;;;5032669;28;20453;-64
2023/04/22 04:06:41;;;;;;;3.70;2.80;;;14.80;74.20;;;;;;5038154;28;20448;-64
2023/04/22 04:09:08;;;;;;;3.30;3.00;;;14.80;74.90;;;;;;5052553;28;20530;-64
2023/04/22 04:11:35;;;;;;;3.50;3.20;;;14.80;74.10;;;;;;5052632;28;20462;-64
2023/04/22 04:14:02;;;;;;;3.27;2.97;;;14.70;74.80;;;;;;5052412;28;20456;-64
2023/04/22 04:16:30;;;;;;;3.10;2.80;;;14.70;74.30;;;;;;5046971;28;20453;-64
2023/04/22 04:18:57;;;;;;;4.47;2.90;;;14.60;74.50;;;;;;5032348;28;20480;-64
2023/04/22 04:21:25;;;;;;;2.60;2.40;;;14.60;74.60;;;;;;5032591;28;20489;-64
2023/04/22 04:23:52;;;;;;;3.07;2.73;;;14.60;74.40;;;;;;5031559;28;20477;-64
2023/04/22 04:26:20;;;;;;;3.20;2.90;;;14.50;74.40;;;;;;5032714;28;20795;-64
2023/04/22 04:28:48;;;;;;;3.13;2.83;;;14.50;74.80;;;;;;5032238;28;20449;-65
2023/04/22 04:31:15;;;;;;;3.47;3.00;;;14.40;75.00;;;;;;5032203;28;20453;-65
2023/04/22 04:33:43;;;;;;;4.00;3.23;;;14.40;75.00;;;;;;5049349;28;20448;-64
2023/04/22 04:36:10;;;;;;;3.63;3.33;;;14.40;75.00;;;;;;5052477;28;20444;-64
2023/04/22 04:38:36;;;;;;;5.23;3.80;;;14.40;74.90;;;;;;5051744;28;20863;-65
2023/04/22 04:41:03;;;;;;;3.47;3.17;;;14.40;74.90;;;;;;5052047;28;20491;-64
2023/04/22 04:43:30;;;;;;;2.93;2.73;;;14.40;74.80;;;;;;5052059;28;20451;-64
2023/04/22 04:45:57;;;;;;;3.43;3.13;;;14.40;74.80;;;;;;5051766;28;20533;-64
2023/04/22 04:48:25;;;;;;;3.20;2.93;;;14.40;74.80;;;;;;5052265;28;20440;-64
2023/04/22 04:50:53;;;;;;;3.37;3.07;;;14.40;74.70;;;;;;5052190;28;20533;-64
2023/04/22 04:53:21;;;;;;;3.50;2.80;;;14.40;74.60;;;;;;5051980;28;20799;-64
2023/04/22 04:55:48;;;;;;;3.40;3.10;;;14.30;74.50;;;;;;5051938;28;20455;-64
2023/04/22 04:58:15;;;;;;;4.47;3.37;;;14.30;74.70;;;;;;5051790;28;20471;-64
2023/04/22 05:00:42;;;;;;;7.43;3.57;;;14.30;74.90;;;;;;5050540;28;20479;-64
2023/04/22 05:03:09;;;;;;;3.90;3.50;;;14.30;75.00;;;;;;5050889;28;20464;-64
2023/04/22 05:05:36;;;;;;;3.60;2.90;;;14.20;74.90;;;;;;5051847;28;20452;-64
2023/04/22 05:08:04;;;;;;;4.03;2.93;;;14.20;75.00;;;;;;5051587;28;20494;-64
2023/04/22 05:10:31;;;;;;;3.20;3.00;;;14.20;75.20;;;;;;5052109;28;20534;-64
2023/04/22 05:12:57;;;;;;;3.67;3.33;;;14.20;75.20;;;;;;5051844;28;20468;-64
2023/04/22 05:15:24;;;;;;;4.93;3.47;;;14.30;75.20;;;;;;5051452;28;20501;-64
2023/04/22 05:17:51;;;;;;;4.70;3.40;;;14.30;75.80;;;;;;5032155;28;20794;-65
2023/04/22 05:20:18;;;;;;;3.40;3.10;;;14.30;75.00;;;;;;5031651;28;20456;-64
2023/04/22 05:22:45;;;;;;;3.17;2.90;;;14.30;75.10;;;;;;5031812;28;20449;-64
2023/04/22 05:25:13;;;;;;;3.60;3.30;;;14.40;75.10;;;;;;5031804;28;20445;-64
2023/04/22 05:27:41;;;;;;;3.70;2.97;;;14.40;74.90;;;;;;5031893;28;20544;-64
2023/04/22 05:30:09;;;;;;;3.67;2.90;;;14.30;74.60;;;;;;5032045;28;20514;-64
2023/04/22 05:32:36;;;;;;;4.00;3.53;;;14.30;74.60;;;;;;5032394;28;20445;-64
2023/04/22 05:35:03;;;;;;;4.23;3.63;;;14.40;74.70;;;;;;5031610;28;20476;-64
2023/04/22 05:37:30;;;;;;;4.33;3.93;;;14.40;74.70;;;;;;5034021;28;20459;-64
2023/04/22 05:39:57;;;;;;;4.87;4.17;;;14.40;74.60;;;;;;5035412;28;20970;-64
2023/04/22 05:42:25;;;;;;;3.83;3.40;;;14.40;74.60;;;;;;5035509;28;20530;-64
2023/04/22 05:44:52;;;;;;;4.57;4.17;;;14.40;74.90;;;;;;5035586;28;20455;-64
2023/04/22 05:47:18;;;;;;;4.37;3.77;;;14.50;74.80;;;;;;5035134;28;20458;-64
2023/04/22 05:49:45;;;;;;;4.53;4.00;;;14.50;75.20;;;;;;5034992;28;20519;-64
2023/04/22 05:52:12;;;;;;;4.43;4.00;;;14.40;75.40;;;;;;5035259;28;21004;-64
2023/04/22 05:54:39;;;;;;;6.47;4.70;;;14.50;75.70;;;;;;5035261;28;20543;-64
2023/04/22 05:57:07;;;;;;;5.03;4.40;;;14.50;76.10;;;;;;5034559;28;20477;-64
2023/04/22 05:59:35;;;;;;;6.97;5.17;;;14.50;76.40;;;;;;5034587;28;20880;-64
2023/04/22 06:02:02;;;;;;;6.43;5.30;;;14.50;77.20;;;;;;5035688;28;20531;-64
2023/04/22 06:04:28;;;;;;;5.97;4.90;;;14.60;77.40;;;;;;5034823;28;20452;-64
2023/04/22 06:06:56;;;;;;;5.77;5.27;;;14.70;77.50;;;;;;5041942;28;20444;-64
2023/04/22 06:09:23;;;;;;;5.63;5.13;;;14.80;77.70;;;;;;5055002;28;20943;-64
2023/04/22 06:11:50;;;;;;;7.33;5.37;;;14.90;77.60;;;;;;5054654;28;20545;-64
2023/04/22 06:14:17;;;;;;;5.43;4.83;;;15.00;77.70;;;;;;5054924;28;20467;-64
2023/04/22 06:16:45;;;;;;;6.30;4.30;;;15.10;77.90;;;;;;5049747;28;20456;-64
2023/04/22 06:19:12;;;;;;;5.30;4.30;;;15.10;77.80;;;;;;5054232;28;20480;-64
2023/04/22 06:21:39;;;;;;;4.33;3.93;;;15.20;78.50;;;;;;5054615;28;20998;-64
2023/04/22 06:24:07;;;;;;;6.60;4.07;;;15.30;77.50;;;;;;5054806;28;20476;-64
2023/04/22 06:26:34;;;;;;;4.40;4.00;;;15.40;77.50;;;;;;5054362;28;20487;-65
2023/04/22 06:29:04;;;;;;;5.30;4.17;;;15.50;77.40;;;;;;5054329;28;20990;-65
2023/04/22 06:31:31;;;;;;;4.20;3.80;;;15.50;77.10;;;;;;5054013;28;20940;-65
2023/04/22 06:33:59;;;;;;;4.47;4.03;;;15.60;76.60;;;;;;5054154;28;20447;-65
2023/04/22 06:36:26;;;;;;;4.00;3.60;;;15.70;76.70;;;;;;5054674;28;20513;-64
2023/04/22 06:38:54;;;;;;;4.93;4.23;;;15.80;76.30;;;;;;5054082;28;20444;-65
2023/04/22 06:41:22;;;;;;;4.13;3.73;;;15.90;76.20;;;;;;5054286;28;20479;-65
2023/04/22 06:43:49;;;;;;;4.17;3.77;;;16.00;76.50;;;;;;5054432;28;20449;-65
2023/04/22 06:46:17;;;;;;;4.90;4.10;;;16.00;76.30;;;;;;5053606;28;20855;-64
2023/04/22 06:48:43;;;;;;;4.70;4.30;;;16.10;76.40;;;;;;5048891;28;20448;-64
2023/04/22 06:51:11;;;;;;;4.30;3.67;;;16.20;76.60;;;;;;5054086;28;20477;-65
2023/04/22 06:53:38;;;;;;;4.77;4.10;;;16.20;77.00;;;;;;5053689;28;20448;-65
2023/04/22 06:56:06;;;;;;;4.07;3.47;;;16.30;76.40;;;;;;5053980;28;20451;-65
2023/04/22 06:58:33;;;;;;;4.07;3.50;;;16.30;76.60;;;;;;5053694;28;20474;-65
2023/04/22 07:01:00;;;;;;;4.37;3.73;;;16.30;76.30;;;;;;5053737;28;20444;-65
2023/04/22 07:03:27;;;;;;;3.80;3.40;;;16.40;76.30;;;;;;5053777;28;20936;-65
2023/04/22 07:05:54;;;;;;;3.83;3.40;;;16.50;76.10;;;;;;5053745;28;20994;-65
2023/04/22 07:08:22;;;;;;;5.33;3.20;;;16.60;76.10;;;;;;5052516;28;20545;-65
2023/04/22 07:10:49;;;;;;;3.57;3.27;;;16.70;75.70;;;;;;5053813;28;20535;-65
2023/04/22 07:13:16;;;;;;;3.83;3.53;;;16.80;75.00;;;;;;5053798;28;20547;-65
2023/04/22 07:15:45;;;;;;;4.07;3.67;;;17.00;75.00;;;;;;5053491;28;20458;-65
2023/04/22 07:18:11;;;;;;;4.60;3.70;;;17.00;74.50;;;;;;5052896;28;20575;-65
2023/04/22 07:20:38;;;;;;;4.23;3.57;;;17.10;74.40;;;;;;5053511;28;20448;-65
2023/04/22 07:23:05;;;;;;;3.73;3.30;;;17.20;74.40;;;;;;5048261;28;20855;-65
2023/04/22 07:25:33;;;;;;;3.70;3.40;;;17.30;73.80;;;;;;5033612;28;20453;-65
2023/04/22 07:28:00;;;;;;;3.47;3.17;;;17.40;73.10;;;;;;5033265;28;20445;-65
2023/04/22 07:30:27;;;;;;;4.67;3.33;;;17.50;72.70;;;;;;5033069;28;20508;-65
2023/04/22 07:32:54;;;;;;;3.40;3.10;;;17.70;71.20;;;;;;5033455;28;20783;-65
2023/04/22 07:35:21;;;;;;;4.00;3.10;;;17.70;70.50;;;;;;5033208;28;20993;-65
2023/04/22 07:37:48;;;;;;;3.83;3.53;;;17.80;70.40;;;;;;5033102;28;20468;-65
2023/04/22 07:40:15;;;;;;;3.50;3.20;;;17.80;68.50;;;;;;5033004;28;20564;-65
2023/04/22 07:42:43;;;;;;;3.80;3.30;;;17.90;69.20;;;;;;5033094;28;20547;-65
2023/04/22 07:45:10;;;;;;;4.50;4.10;;;18.00;68.30;;;;;;5033207;28;20481;-65
2023/04/22 07:47:37;;;;;;;4.00;3.60;;;18.10;68.50;;;;;;5032919;28;20587;-65
2023/04/22 07:50:07;;;;;;;4.57;3.47;;;18.10;68.20;;;;;;5033231;28;20528;-65
2023/04/22 07:52:34;;;;;;;3.60;3.30;;;18.20;68.30;;;;;;5033253;28;20449;-65
2023/04/22 07:55:01;;;;;;;3.57;3.27;;;18.40;68.70;;;;;;5033332;28;20967;-65
2023/04/22 07:57:28;;;;;;;3.50;3.20;;;18.40;66.50;;;;;;5034159;28;20202;-64
2023/04/22 07:59:56;;;;;;;3.50;3.20;;;18.50;66.10;;;;;;5052440;28;20201;-65
2023/04/22 08:02:23;;;;;;;3.67;3.30;;;18.60;66.80;;;;;;5052915;28;20237;-65
2023/04/22 08:04:50;;;;;;;3.90;3.60;;;18.80;67.00;;;;;;5052987;28;20208;-65
2023/04/22 08:07:16;;;;;;;3.70;3.40;;;18.90;65.20;;;;;;5052406;28;20562;-65
2023/04/22 08:09:43;;;;;;;4.17;3.30;;;18.90;64.50;;;;;;5052695;28;20451;-65
2023/04/22 08:12:10;;;;;;;3.57;3.27;;;19.00;63.20;;;;;;5052933;28;20535;-65
2023/04/22 08:14:37;;;;;;;3.50;3.00;;;19.10;62.80;;;;;;5052794;28;20455;-64
2023/04/22 08:17:05;;;;;;;3.53;2.97;;;19.20;62.10;;;;;;5052331;28;20301;-64
2023/04/22 08:19:32;;;;;;;4.17;2.83;;;19.30;61.40;;;;;;5052348;28;20459;-64
2023/04/22 08:21:59;;;;;;;3.30;3.00;;;19.40;60.90;;;;;;5047922;28;20215;-64
2023/04/22 08:24:26;;;;;;;3.40;3.10;;;19.50;61.20;;;;;;5032572;28;20241;-64
2023/04/22 08:26:52;;;;;;;3.37;2.73;;;19.60;59.90;;;;;;5032688;28;20451;-64
2023/04/22 08:29:19;;;;;;;4.40;3.13;;;19.60;59.50;;;;;;5032305;28;20233;-64
2023/04/22 08:31:46;;;;;;;3.40;3.07;;;19.80;60.00;;;;;;5032605;28;20208;-65
2023/04/22 08:34:14;;;;;;;3.20;2.70;;;19.90;60.00;;;;;;5032377;28;20241;-65
2023/04/22 08:36:42;;;;;;;3.40;3.10;;;20.00;60.00;;;;;;5032317;28;20194;-65
2023/04/22 08:39:09;;;;;;;3.07;2.77;;;20.10;59.60;;;;;;5032364;28;20203;-65
2023/04/22 08:41:36;;;;;;;3.07;2.80;;;20.30;58.90;;;;;;5032351;28;20574;-66
2023/04/22 08:44:04;;;;;;;4.13;2.80;;;20.40;59.60;;;;;;5032034;28;20310;-65
2023/04/22 08:46:31;;;;;;;3.80;2.50;;;20.50;58.70;;;;;;5031919;28;20235;-65
2023/04/22 08:49:02;;;;;;;2.73;2.53;;;20.60;58.00;;;;;;5032071;28;20759;-65
2023/04/22 08:51:32;;;;;;;4.00;2.57;;;20.60;57.80;;;;;;5031937;28;20732;-65
2023/04/22 08:53:59;;;;;;;2.93;2.57;;;20.70;58.10;;;;;;5032307;28;20217;-65
2023/04/22 08:56:27;;;;;;;4.13;2.60;;;20.80;57.60;;;;;;5031888;28;20234;-65
2023/04/22 08:58:54;;;;;;;3.63;2.60;;;20.90;57.60;;;;;;5031417;28;20313;-66
2023/04/22 09:01:22;;;;;;;2.83;2.63;;;21.00;57.20;;;;;;5031920;28;20251;-65
2023/04/22 09:03:50;;;;;;;2.90;2.60;;;21.00;57.60;;;;;;5032055;28;20284;-65
2023/04/22 09:06:19;;;;;;;3.13;2.80;;;21.20;57.90;;;;;;5034946;28;20292;-65
2023/04/22 09:08:49;;;;;;;2.60;2.40;;;21.30;58.20;;;;;;5039060;28;20724;-65
2023/04/22 09:11:16;;;;;;;3.87;3.17;;;21.50;58.20;;;;;;5046910;28;20646;-65
2023/04/22 09:13:43;;;;;;;2.90;2.70;;;21.60;57.40;;;;;;5055583;28;20596;-66
2023/04/22 09:16:10;;;;;;;2.50;2.30;;;21.70;57.50;;;;;;5055942;28;20327;-66
2023/04/22 09:18:41;;;;;;;2.33;2.13;;;21.70;57.10;;;;;;5055599;28;20615;-66
2023/04/22 09:21:08;;;;;;;3.57;2.60;;;21.80;57.00;;;;;;5055792;28;20213;-66
2023/04/22 09:23:45;;;;;;;2.67;2.47;;;21.90;57.30;;;;;;5055652;28;20232;-65
2023/04/22 09:26:13;;;;;;;3.20;2.93;;;22.00;57.20;;;;;;5054073;28;20217;-65
2023/04/22 09:28:49;;;;;;;2.80;2.60;;;22.10;57.00;;;;;;5037141;28;20215;-66
2023/04/22 09:31:16;;;;;;;3.17;2.53;;;22.20;57.40;;;;;;5035745;28;20604;-66
2023/04/22 09:33:49;;;;;;;2.87;2.57;;;22.40;57.30;;;;;;5035433;28;20676;-66
2023/04/22 09:36:15;;;;;;;2.33;2.13;;;22.50;55.70;;;;;;5035838;28;20250;-65
2023/04/22 09:38:52;;;;;;;3.57;2.33;;;22.50;55.10;;;;;;5035304;28;20221;-65
2023/04/22 09:41:27;;;;;;;2.73;2.30;;;22.50;54.10;;;;;;5052106;28;20225;-65
2023/04/22 09:43:56;;;;;;;2.40;2.20;;;22.50;54.00;;;;;;5042025;28;20222;-66
2023/04/22 09:46:24;;;;;;;2.20;2.00;;;22.60;54.40;;;;;;5035294;28;20736;-65
2023/04/22 09:48:52;;;;;;;2.47;2.00;;;22.80;56.10;;;;;;5035164;28;20314;-66
2023/04/22 09:51:19;;;;;;;2.30;2.10;;;23.00;54.60;;;;;;5035378;28;20219;-65
2023/04/22 09:53:57;;;;;;;2.40;2.20;;;23.10;54.40;;;;;;5035240;28;20203;-65
2023/04/22 09:56:40;;;;;;;2.60;2.00;;;23.20;53.80;;;;;;5035103;28;20213;-65
2023/04/22 09:59:07;;;;;;;2.43;1.97;;;23.40;52.20;;;;;;5034798;28;20245;-65
2023/04/22 10:01:39;;;;;;;2.97;1.77;;;23.50;53.20;;;;;;5035093;28;20214;-65
2023/04/22 10:04:07;;;;;;;2.30;2.10;;;23.60;51.80;;;;;;5042680;28;20224;-66
2023/04/22 10:06:33;;;;;;;3.37;2.20;;;23.70;52.00;;;;;;5054884;28;20198;-66
2023/04/22 10:09:01;;;;;;;2.93;1.97;;;23.70;50.80;;;;;;5054907;28;20312;-65
2023/04/22 10:11:30;;;;;;;2.80;2.30;;;23.80;50.10;;;;;;5039220;28;20572;-65
2023/04/22 10:13:59;;;;;;;3.60;2.17;;;23.80;50.50;;;;;;5034762;28;20265;-65
2023/04/22 10:16:27;;;;;;;2.07;1.90;;;23.90;50.20;;;;;;5035182;28;20203;-65
2023/04/22 10:18:55;;;;;;;2.13;1.70;;;24.00;49.60;;;;;;5034424;28;20230;-65
2023/04/22 10:21:25;;;;;;;2.20;2.00;;;24.10;50.00;;;;;;5034787;28;20671;-66
2023/04/22 10:23:52;;;;;;;3.50;2.53;;;24.20;50.10;;;;;;5034137;28;20313;-65
2023/04/22 10:26:55;;;;;;;3.23;2.07;;;24.50;50.00;;;;;;5050140;28;20201;-66
2023/04/22 10:29:22;;;;;;;2.73;2.20;;;24.60;49.00;;;;;;5030438;28;20642;-66
2023/04/22 10:31:55;;;;;;;7.17;4.23;;;24.80;49.20;;;;;;5034715;28;20293;-66
2023/04/22 10:34:22;;;;;;;4.27;2.27;;;24.90;48.10;;;;;;5034403;28;20225;-66
2023/04/22 10:36:57;;;;;;;3.73;3.23;;;24.90;47.40;;;;;;5034801;28;20206;-65
2023/04/22 10:39:25;;;;;;;4.80;2.67;;;25.00;46.70;;;;;;5034312;28;20673;-66
2023/04/22 10:42:05;;;;;;;4.67;3.53;;;24.90;45.90;;;;;;5034061;28;20235;-66
2023/04/22 10:44:49;;;;;;;2.13;1.90;;;24.90;44.90;;;;;;5034630;28;20252;-65
2023/04/22 10:47:26;;;;;;;3.90;2.53;;;25.00;44.50;;;;;;5034293;28;20320;-66
2023/04/22 10:50:20;;;;;;;2.10;1.90;;;25.10;43.50;;;;;;5034499;28;20573;-65
2023/04/22 10:52:49;;;;;;;2.90;2.30;;;25.00;43.00;;;;;;5038064;28;20305;-65
2023/04/22 10:55:16;;;;;;;3.23;2.70;;;25.00;44.10;;;;;;5034100;28;20632;-65
2023/04/22 10:57:46;;;;;;;2.57;1.97;;;25.00;43.60;;;;;;5034008;28;20236;-65
2023/04/22 11:00:38;;;;;;;2.10;1.83;;;25.10;44.10;;;;;;5034361;28;20293;-66
2023/04/22 11:03:17;;;;;;;2.70;1.63;;;25.20;43.20;;;;;;5034116;28;20241;-65
2023/04/22 11:05:44;;;;;;;2.27;1.53;;;25.20;42.80;;;;;;5033885;28;20206;-66
2023/04/22 11:08:20;;;;;;;2.17;1.97;;;25.40;43.30;;;;;;5034144;28;20226;-65
2023/04/22 11:10:48;;;;;;;6.03;4.90;;;25.40;41.00;;;;;;5033819;28;20249;-65
2023/04/22 11:13:18;;;;;;;2.03;1.90;;;25.30;41.70;;;;;;5033765;28;20213;-65
2023/04/22 11:15:46;;;;;;;2.70;2.00;;;25.40;42.20;;;;;;5033645;28;20218;-65
2023/04/22 11:18:19;;;;;;;2.70;2.10;;;25.50;42.80;;;;;;5033533;28;20210;-66
2023/04/22 11:20:48;;;;;;;4.87;4.17;;;25.70;41.40;;;;;;5033738;28;20218;-65
2023/04/22 11:23:19;;;;;;;3.90;2.17;;;25.80;43.10;;;;;;5033414;28;20229;-66
2023/04/22 11:25:46;;;;;;;2.63;1.93;;;25.90;42.20;;;;;;5033592;28;20635;-65
2023/04/22 11:28:13;;;;;;;3.47;2.43;;;25.90;42.80;;;;;;5033549;28;20609;-65
2023/04/22 11:30:42;;;;;;;1.83;1.70;;;26.00;41.70;;;;;;5033555;28;20236;-65
2023/04/22 11:33:09;;;;;;;4.77;3.00;;;25.90;41.70;;;;;;5033352;28;20199;-66
2023/04/22 11:35:37;;;;;;;4.13;3.73;;;26.10;40.70;;;;;;5033447;28;20226;-65
2023/04/22 11:38:07;;;;;;;4.20;2.80;;;26.00;38.90;;;;;;5033002;28;20245;-65
2023/04/22 11:40:35;;;;;;;2.17;1.87;;;25.90;39.20;;;;;;5033433;28;20256;-64
2023/04/22 11:43:05;;;;;;;3.47;2.70;;;25.90;38.80;;;;;;5033322;28;20230;-64
2023/04/22 11:45:34;;;;;;;2.47;1.80;;;25.90;39.20;;;;;;5033148;28;20665;-64
2023/04/22 11:48:05;;;;;;;1.90;1.70;;;25.90;39.50;;;;;;5032850;28;20213;-64
2023/04/22 11:50:34;;;;;;;2.80;1.80;;;25.90;39.90;;;;;;5034145;28;20213;-64
2023/04/22 11:53:02;;;;;;;2.40;1.80;;;25.90;39.70;;;;;;5052777;28;20270;-64
2023/04/22 11:55:31;;;;;;;2.10;1.90;;;25.80;39.30;;;;;;5035991;28;20284;-64
2023/04/22 11:57:58;;;;;;;2.37;2.17;;;25.70;39.70;;;;;;5032549;28;20234;-64
2023/04/22 12:00:30;;;;;;;3.60;3.20;;;25.40;39.10;;;;;;5032987;28;20205;-64
2023/04/22 12:02:59;;;;;;;5.57;4.73;;;25.20;39.70;;;;;;5032918;28;20230;-64
2023/04/22 12:05:39;;;;;;;6.07;3.80;;;25.10;41.00;;;;;;5032768;28;20208;-64
2023/04/22 12:08:11;;;;;;;2.97;2.67;;;25.20;41.20;;;;;;5049167;28;20235;-64
2023/04/22 12:10:43;;;;;;;3.80;3.10;;;25.30;40.80;;;;;;5032832;28;20670;-64
2023/04/22 12:13:17;;;;;;;4.90;3.60;;;25.30;41.20;;;;;;5032969;28;20600;-64
2023/04/22 12:15:44;;;;;;;2.10;1.87;;;25.40;41.00;;;;;;5032682;28;20202;-65
2023/04/22 12:18:12;;;;;;;7.33;6.60;;;25.40;40.10;;;;;;5032532;28;20210;-64
2023/04/22 12:20:41;;;;;;;3.57;2.60;;;25.50;40.10;;;;;;5032605;28;20221;-64
2023/04/22 12:23:15;;;;;;;2.90;2.00;;;25.40;39.10;;;;;;5032365;28;20233;-64
2023/04/22 12:25:43;;;;;;;5.07;1.90;;;25.40;39.40;;;;;;5032617;28;20238;-65
2023/04/22 12:28:11;;;;;;;3.20;2.10;;;25.50;40.10;;;;;;5031972;28;20217;-64
2023/04/22 12:30:38;;;;;;;2.77;1.87;;;25.60;40.00;;;;;;5032487;28;20233;-64
2023/04/22 12:33:05;;;;;;;2.83;1.90;;;25.60;39.50;;;;;;5032693;28;20293;-64
2023/04/22 12:35:32;;;;;;;2.40;1.60;;;25.60;40.30;;;;;;5032213;28;20226;-64
2023/04/22 12:38:01;;;;;;;2.00;1.70;;;25.60;38.70;;;;;;5032092;28;20201;-64
2023/04/22 12:40:28;;;;;;;2.50;1.60;;;25.50;39.10;;;;;;5032504;28;20211;-64
2023/04/22 12:42:55;;;;;;;2.83;1.83;;;25.60;40.00;;;;;;5032298;28;20773;-64
2023/04/22 12:45:23;;;;;;;2.10;1.90;;;25.70;40.20;;;;;;5034980;28;20571;-64
2023/04/22 12:47:52;;;;;;;2.87;1.73;;;25.60;40.00;;;;;;5038900;28;20234;-65
2023/04/22 12:50:19;;;;;;;2.00;1.80;;;25.60;39.40;;;;;;5038746;28;20290;-66
2023/04/22 12:52:46;;;;;;;2.50;2.17;;;25.70;39.90;;;;;;5039106;28;20226;-65